createdAt,value
2019-05-03T00:00:18.921Z,83.29
2019-05-03T00:03:07.824Z,83.42
2019-05-03T00:05:49.465Z,82.72
2019-05-03T00:08:21.714Z,83.15
2019-05-03T00:10:51.853Z,83.98
2019-05-03T00:13:21.974Z,83.99
2019-05-03T00:16:21.820Z,82.61
2019-05-03T00:18:52.718Z,82.87
2019-05-03T00:21:22.699Z,82.93
2019-05-03T00:23:52.650Z,83.27
2019-05-03T00:26:22.705Z,82.73
2019-05-03T00:28:52.894Z,82.25
2019-05-03T00:31:22.852Z,83.19
2019-05-03T00:33:56.820Z,82.77
2019-05-03T00:36:48.954Z,83.31
2019-05-03T00:39:29.949Z,83.47
2019-05-03T00:42:00.027Z,83.81
2019-05-03T00:44:31.697Z,84.09
2019-05-03T00:47:02.295Z,84.54
2019-05-03T00:49:32.357Z,84.01
2019-05-03T00:52:02.468Z,85.02
2019-05-03T00:54:32.462Z,84.51
2019-05-03T00:57:02.794Z,84.67
2019-05-03T00:59:32.782Z,84.81
2019-05-03T01:02:02.858Z,84.31
2019-05-03T01:04:33.087Z,84.62
2019-05-03T01:07:02.939Z,84.41
2019-05-03T01:09:32.984Z,84.76
2019-05-03T01:12:02.910Z,84.74
2019-05-03T01:14:33.397Z,84.86
2019-05-03T01:17:03.386Z,84.08
2019-05-03T01:19:33.949Z,84.17
2019-05-03T01:22:03.849Z,83.78
2019-05-03T01:24:33.842Z,84.39
2019-05-03T01:27:04.401Z,84.53
2019-05-03T01:29:34.447Z,85.05
2019-05-03T01:32:04.446Z,84.71
2019-05-03T01:34:34.385Z,85.09
2019-05-03T01:37:04.484Z,85.32
2019-05-03T01:39:34.475Z,84.69
2019-05-03T01:42:04.745Z,84.87
2019-05-03T01:44:34.761Z,84.67
2019-05-03T01:47:07.446Z,84.66
2019-05-03T01:49:52.039Z,83.96
2019-05-03T01:52:28.736Z,84.54
2019-05-03T01:54:58.844Z,85.01
2019-05-03T01:57:28.849Z,85.41
2019-05-03T01:59:58.871Z,85.35
2019-05-03T02:02:56.874Z,84.58
2019-05-03T02:05:44.523Z,84.13
2019-05-03T02:08:14.665Z,84.17
2019-05-03T02:10:44.736Z,84.91
2019-05-03T02:13:14.663Z,84.81
2019-05-03T02:15:44.714Z,85.81
2019-05-03T02:18:15.217Z,86.11
2019-05-03T02:20:45.132Z,86.69
2019-05-03T02:23:15.106Z,86.87
2019-05-03T02:25:55.585Z,86.81
2019-05-03T02:28:16.842Z,85.45
2019-05-03T02:30:46.750Z,85.78
2019-05-03T02:33:16.660Z,86.00
2019-05-03T02:35:46.561Z,85.66
2019-05-03T02:38:16.546Z,85.60
2019-05-03T02:40:46.559Z,86.00
2019-05-03T02:43:41.716Z,86.21
2019-05-03T02:46:19.959Z,85.74
2019-05-03T02:49:12.042Z,86.16
2019-05-03T02:51:41.897Z,86.30
2019-05-03T02:54:11.918Z,85.61
2019-05-03T02:56:42.888Z,85.53
2019-05-03T02:59:15.473Z,85.04
2019-05-03T03:01:46.521Z,83.34
2019-05-03T03:04:17.367Z,83.37
2019-05-03T03:06:49.797Z,82.76
2019-05-03T03:09:21.578Z,80.87
2019-05-03T03:11:55.795Z,81.78
2019-05-03T03:14:27.694Z,82.59
2019-05-03T03:17:00.591Z,83.79
2019-05-03T03:19:30.985Z,83.85
2019-05-03T03:22:06.344Z,83.36
2019-05-03T03:24:40.069Z,82.54
2019-05-03T03:27:16.324Z,82.77
2019-05-03T03:29:49.554Z,82.79
2019-05-03T03:32:31.596Z,84.36
2019-05-03T03:35:12.542Z,83.94
2019-05-03T03:37:41.765Z,84.63
2019-05-03T03:40:13.130Z,83.23
2019-05-03T03:42:44.962Z,82.15
2019-05-03T03:45:16.718Z,81.20
2019-05-03T03:47:49.752Z,82.11
2019-05-03T03:50:19.704Z,83.47
2019-05-03T03:52:51.234Z,84.05
2019-05-03T03:55:26.166Z,85.10
2019-05-03T03:57:55.698Z,84.78
2019-05-03T04:00:26.078Z,85.74
2019-05-03T04:02:56.146Z,86.63
2019-05-03T04:05:26.533Z,87.05
2019-05-03T04:07:56.644Z,86.43
2019-05-03T04:10:27.238Z,86.58
2019-05-03T04:12:58.069Z,87.02
2019-05-03T04:15:45.712Z,85.81
2019-05-03T04:18:36.322Z,86.06
2019-05-03T04:21:07.571Z,86.19
2019-05-03T04:23:38.034Z,85.68
2019-05-03T04:26:08.187Z,86.36
2019-05-03T04:28:39.048Z,86.61
2019-05-03T04:31:09.062Z,86.11
2019-05-03T04:33:39.096Z,85.84
2019-05-03T04:36:09.184Z,86.73
2019-05-03T04:38:39.184Z,85.43
2019-05-03T04:41:09.200Z,85.32
2019-05-03T04:43:39.047Z,85.88
2019-05-03T04:46:17.534Z,85.40
2019-05-03T04:48:47.527Z,84.84
2019-05-03T04:51:17.541Z,85.50
2019-05-03T04:53:55.982Z,84.52
2019-05-03T04:56:26.227Z,85.54
2019-05-03T04:58:56.317Z,84.60
2019-05-03T05:01:26.304Z,83.85
2019-05-03T05:03:56.144Z,84.87
2019-05-03T05:06:26.106Z,84.56
2019-05-03T05:08:55.939Z,84.48
2019-05-03T05:11:26.493Z,85.19
2019-05-03T05:13:56.503Z,85.35
2019-05-03T05:16:26.397Z,84.46
2019-05-03T05:19:00.457Z,85.89
2019-05-03T05:21:35.519Z,85.59
2019-05-03T05:24:06.393Z,85.11
2019-05-03T05:26:55.380Z,85.14
2019-05-03T05:29:27.628Z,82.48
2019-05-03T05:31:57.849Z,81.81
2019-05-03T05:34:28.043Z,82.15
2019-05-03T05:36:57.889Z,83.68
2019-05-03T05:39:27.791Z,84.78
2019-05-03T05:41:57.784Z,84.60
2019-05-03T05:44:27.640Z,83.69
2019-05-03T05:47:15.363Z,83.58
2019-05-03T05:49:54.780Z,82.81
2019-05-03T05:52:24.715Z,82.67
2019-05-03T05:55:22.563Z,82.83
2019-05-03T05:58:07.535Z,84.06
2019-05-03T06:00:48.608Z,84.07
2019-05-03T06:03:18.546Z,83.53
2019-05-03T06:05:48.502Z,84.11
2019-05-03T06:08:40.149Z,83.56
2019-05-03T06:11:29.081Z,84.39
2019-05-03T06:14:04.926Z,82.65
2019-05-03T06:16:45.174Z,83.25
2019-05-03T06:19:34.524Z,82.92
2019-05-03T06:22:15.370Z,83.64
2019-05-03T06:24:51.127Z,84.37
2019-05-03T06:27:29.325Z,84.50
2019-05-03T06:30:04.683Z,83.62
2019-05-03T06:32:37.305Z,83.92
2019-05-03T06:35:07.568Z,82.15
2019-05-03T06:37:42.769Z,83.31
2019-05-03T06:40:14.792Z,82.31
2019-05-03T06:42:53.328Z,81.89
2019-05-03T06:45:16.520Z,81.52
2019-05-03T06:47:50.005Z,81.90
2019-05-03T06:50:19.457Z,81.62
2019-05-03T06:52:49.879Z,82.44
2019-05-03T06:55:19.750Z,81.44
2019-05-03T06:57:49.908Z,80.18
2019-05-03T07:00:48.429Z,81.77
2019-05-03T07:03:37.447Z,81.03
2019-05-03T07:06:33.426Z,79.34
2019-05-03T07:09:14.428Z,80.46
2019-05-03T07:11:45.154Z,78.45
2019-05-03T07:14:15.632Z,76.93
2019-05-03T07:16:45.623Z,76.09
2019-05-03T07:19:15.637Z,77.44
2019-05-03T07:21:45.631Z,78.65
2019-05-03T07:24:15.482Z,78.34
2019-05-03T07:26:45.471Z,78.85
2019-05-03T07:29:15.481Z,79.70
2019-05-03T07:31:45.425Z,79.51
2019-05-03T07:34:15.703Z,80.70
2019-05-03T07:36:45.813Z,79.97
2019-05-03T07:39:15.872Z,80.25
2019-05-03T07:41:46.299Z,80.32
2019-05-03T07:44:16.135Z,81.19
2019-05-03T07:46:46.159Z,79.92
2019-05-03T07:49:16.275Z,78.64
2019-05-03T07:51:46.402Z,78.30
2019-05-03T07:54:16.371Z,78.31
2019-05-03T07:56:54.789Z,78.28
2019-05-03T07:59:25.078Z,77.99
2019-05-03T08:01:56.954Z,77.69
2019-05-03T08:04:27.224Z,76.92
2019-05-03T08:06:57.244Z,77.07
2019-05-03T08:09:27.110Z,76.74
2019-05-03T08:11:57.097Z,77.39
2019-05-03T08:14:27.018Z,76.50
2019-05-03T08:16:58.183Z,77.59
2019-05-03T08:19:28.060Z,77.12
2019-05-03T08:21:58.022Z,75.96
2019-05-03T08:24:27.975Z,73.59
2019-05-03T08:26:58.065Z,74.62
2019-05-03T08:29:28.016Z,74.04
2019-05-03T08:32:15.990Z,73.16
2019-05-03T08:35:08.028Z,71.23
2019-05-03T08:37:45.342Z,73.51
2019-05-03T08:40:15.818Z,74.20
2019-05-03T08:42:45.771Z,75.21
2019-05-03T08:45:15.810Z,76.29
2019-05-03T08:47:45.810Z,77.12
2019-05-03T08:50:21.194Z,77.68
2019-05-03T08:52:47.653Z,77.78
2019-05-03T08:55:17.647Z,77.69
2019-05-03T08:57:47.571Z,76.94
2019-05-03T09:00:19.250Z,78.24
2019-05-03T09:02:49.185Z,77.60
2019-05-03T09:05:19.261Z,78.53
2019-05-03T09:07:50.770Z,77.78
2019-05-03T09:10:26.699Z,78.31
2019-05-03T09:13:25.125Z,76.82
2019-05-03T09:15:55.542Z,78.73
2019-05-03T09:18:25.902Z,79.96
2019-05-03T09:20:56.014Z,77.91
2019-05-03T09:23:26.201Z,77.92
2019-05-03T09:25:56.084Z,78.64
2019-05-03T09:28:29.065Z,79.66
2019-05-03T09:30:57.711Z,79.90
2019-05-03T09:33:28.708Z,78.01
2019-05-03T09:35:58.576Z,79.85
2019-05-03T09:38:28.604Z,80.06
2019-05-03T09:40:58.672Z,82.65
2019-05-03T09:43:28.602Z,84.20
2019-05-03T09:45:58.460Z,84.04
2019-05-03T09:48:28.452Z,85.90
2019-05-03T09:50:58.426Z,84.05
2019-05-03T09:53:30.846Z,85.33
2019-05-03T09:56:00.895Z,83.78
2019-05-03T09:58:30.880Z,84.37
2019-05-03T10:01:00.827Z,83.13
2019-05-03T10:03:30.926Z,81.83
2019-05-03T10:06:00.973Z,80.45
2019-05-03T10:08:31.002Z,81.03
2019-05-03T10:11:10.326Z,82.84
2019-05-03T10:13:42.175Z,83.79
2019-05-03T10:16:12.364Z,84.86
2019-05-03T10:18:45.662Z,85.03
2019-05-03T10:21:15.361Z,84.41
2019-05-03T10:23:45.522Z,81.68
2019-05-03T10:26:15.499Z,81.69
2019-05-03T10:28:45.526Z,81.72
2019-05-03T10:31:15.534Z,78.48
2019-05-03T10:33:53.449Z,78.67
2019-05-03T10:36:24.947Z,79.93
2019-05-03T10:38:56.206Z,80.57
2019-05-03T10:41:26.688Z,78.14
2019-05-03T10:43:56.775Z,78.38
2019-05-03T10:46:26.775Z,80.91
2019-05-03T10:48:56.640Z,80.70
2019-05-03T10:51:28.487Z,79.44
2019-05-03T10:53:59.989Z,77.45
2019-05-03T10:56:47.450Z,79.00
2019-05-03T10:59:17.965Z,78.71
2019-05-03T11:02:16.560Z,75.20
2019-05-03T11:04:46.590Z,75.06
2019-05-03T11:07:16.594Z,74.69
2019-05-03T11:09:51.830Z,73.80
2019-05-03T11:12:18.197Z,72.66
2019-05-03T11:14:48.176Z,73.87
2019-05-03T11:17:18.201Z,72.77
2019-05-03T11:19:48.051Z,71.74
2019-05-03T11:22:18.065Z,67.23
2019-05-03T11:24:48.059Z,69.50
2019-05-03T11:27:25.619Z,68.98
2019-05-03T11:29:55.741Z,67.86
2019-05-03T11:32:50.751Z,66.22
2019-05-03T11:35:26.735Z,64.84
2019-05-03T11:38:05.319Z,67.61
2019-05-03T11:40:34.717Z,66.10
2019-05-03T11:43:04.794Z,67.18
2019-05-03T11:45:35.378Z,69.25
2019-05-03T11:48:05.935Z,69.54
2019-05-03T11:50:35.963Z,69.33
2019-05-03T11:53:05.972Z,66.90
2019-05-03T11:55:36.002Z,66.51
2019-05-03T11:58:18.526Z,68.54
2019-05-03T12:00:51.339Z,65.94
2019-05-03T12:03:26.894Z,64.15
2019-05-03T12:05:58.637Z,64.71
2019-05-03T12:08:28.581Z,65.55
2019-05-03T12:11:01.566Z,62.03
2019-05-03T12:13:31.276Z,63.29
2019-05-03T12:16:14.575Z,62.27
2019-05-03T12:18:47.973Z,61.25
2019-05-03T12:21:08.346Z,60.58
2019-05-03T12:23:38.360Z,61.39
2019-05-03T12:26:12.909Z,62.07
2019-05-03T12:28:40.357Z,63.63
2019-05-03T12:31:25.817Z,62.93
2019-05-03T12:33:41.911Z,62.84
2019-05-03T12:36:11.754Z,64.60
2019-05-03T12:38:41.714Z,64.08
2019-05-03T12:41:11.626Z,63.91
2019-05-03T12:43:41.554Z,63.36
2019-05-03T12:46:11.478Z,63.62
2019-05-03T12:48:41.405Z,64.51
2019-05-03T12:51:11.671Z,67.39
2019-05-03T12:53:42.062Z,67.32
2019-05-03T12:56:13.790Z,68.89
2019-05-03T12:58:58.949Z,71.43
2019-05-03T13:01:55.821Z,74.56
2019-05-03T13:04:29.157Z,74.33
2019-05-03T13:07:05.604Z,73.50
2019-05-03T13:09:35.913Z,73.84
2019-05-03T13:12:07.184Z,73.32
2019-05-03T13:14:37.069Z,74.17
2019-05-03T13:17:11.101Z,74.69
2019-05-03T13:19:39.791Z,73.85
2019-05-03T13:22:09.743Z,73.52
2019-05-03T13:24:39.635Z,71.72
2019-05-03T13:27:09.578Z,70.33
2019-05-03T13:29:39.495Z,71.77
2019-05-03T13:32:09.453Z,71.97
2019-05-03T13:34:41.363Z,70.40
2019-05-03T13:37:11.072Z,69.55
2019-05-03T13:39:41.033Z,67.51
2019-05-03T13:42:11.078Z,67.64
2019-05-03T13:44:41.124Z,68.31
2019-05-03T13:47:11.136Z,68.73
2019-05-03T13:49:41.188Z,70.58
2019-05-03T13:52:11.220Z,72.70
2019-05-03T13:54:41.193Z,72.08
2019-05-03T13:57:11.195Z,71.37
2019-05-03T13:59:41.036Z,71.12
2019-05-03T14:02:18.289Z,70.22
2019-05-03T14:04:52.302Z,70.15
2019-05-03T14:07:15.289Z,70.49
2019-05-03T14:09:45.421Z,70.97
2019-05-03T14:12:15.616Z,70.88
2019-05-03T14:14:56.554Z,71.99
2019-05-03T14:17:28.943Z,70.99
2019-05-03T14:20:11.196Z,73.07
2019-05-03T14:22:42.704Z,73.04
2019-05-03T14:25:12.636Z,73.93
2019-05-03T14:27:42.692Z,73.64
2019-05-03T14:30:14.589Z,73.73
2019-05-03T14:32:45.283Z,73.92
2019-05-03T14:35:16.323Z,74.34
2019-05-03T14:37:46.595Z,72.73
2019-05-03T14:40:16.850Z,75.32
2019-05-03T14:42:46.870Z,75.38
2019-05-03T14:45:16.938Z,76.53
2019-05-03T14:47:47.212Z,77.19
2019-05-03T14:50:18.489Z,78.93
2019-05-03T14:52:48.381Z,79.77
2019-05-03T14:55:28.371Z,79.81
2019-05-03T14:58:09.934Z,80.30
2019-05-03T15:00:46.999Z,81.08
2019-05-03T15:03:20.126Z,82.71
2019-05-03T15:05:50.080Z,82.10
2019-05-03T15:08:20.111Z,81.80
2019-05-03T15:10:51.112Z,81.04
2019-05-03T15:13:25.043Z,80.74
2019-05-03T15:15:55.193Z,80.79
2019-05-03T15:18:25.691Z,80.06
2019-05-03T15:20:55.735Z,78.58
2019-05-03T15:23:25.672Z,78.79
2019-05-03T15:25:55.551Z,79.35
2019-05-03T15:28:25.375Z,79.08
2019-05-03T15:30:56.436Z,77.95
2019-05-03T15:33:26.347Z,78.07
2019-05-03T15:35:56.265Z,78.00
2019-05-03T15:38:27.225Z,77.34
2019-05-03T15:40:57.063Z,76.58
2019-05-03T15:43:45.940Z,76.32
2019-05-03T15:46:34.943Z,76.93
2019-05-03T15:49:04.942Z,76.65
2019-05-03T15:51:34.948Z,77.74
2019-05-03T15:54:05.041Z,78.19
2019-05-03T15:56:35.091Z,77.35
2019-05-03T15:59:05.052Z,76.32
2019-05-03T16:01:35.455Z,76.87
2019-05-03T16:04:05.534Z,77.16
2019-05-03T16:06:35.461Z,77.32
2019-05-03T16:09:06.871Z,76.67
2019-05-03T16:11:37.027Z,76.99
2019-05-03T16:14:07.109Z,76.13
2019-05-03T16:16:36.933Z,76.71
2019-05-03T16:19:06.885Z,77.31
2019-05-03T16:21:36.916Z,77.33
2019-05-03T16:24:06.822Z,77.66
2019-05-03T16:26:38.951Z,77.59
2019-05-03T16:29:12.312Z,77.79
2019-05-03T16:31:42.160Z,77.69
2019-05-03T16:34:12.072Z,78.63
2019-05-03T16:36:41.949Z,77.80
2019-05-03T16:39:12.951Z,77.44
2019-05-03T16:41:44.800Z,78.29
2019-05-03T16:44:16.490Z,79.38
2019-05-03T16:46:47.655Z,79.00
2019-05-03T16:49:17.472Z,78.91
2019-05-03T16:51:47.516Z,78.32
2019-05-03T16:54:17.407Z,78.28
2019-05-03T16:56:47.899Z,78.52
2019-05-03T16:59:20.584Z,78.23
2019-05-03T17:01:50.557Z,78.56
2019-05-03T17:04:42.404Z,78.44
2019-05-03T17:07:27.326Z,78.21
2019-05-03T17:10:07.774Z,78.06
2019-05-03T17:12:37.824Z,77.85
2019-05-03T17:15:08.363Z,77.65
2019-05-03T17:17:38.347Z,76.43
2019-05-03T17:20:08.696Z,76.95
2019-05-03T17:22:38.800Z,77.47
2019-05-03T17:25:09.178Z,77.08
2019-05-03T17:27:39.713Z,76.50
2019-05-03T17:30:10.090Z,76.10
2019-05-03T17:32:40.122Z,76.38
2019-05-03T17:35:10.333Z,76.97
2019-05-03T17:37:40.199Z,77.32
2019-05-03T17:40:23.981Z,78.34
2019-05-03T17:43:06.837Z,78.28
2019-05-03T17:45:40.257Z,78.03
2019-05-03T17:48:10.320Z,78.17
2019-05-03T17:50:40.291Z,78.84
2019-05-03T17:53:41.378Z,78.88
2019-05-03T17:56:35.043Z,78.94
2019-05-03T17:59:08.972Z,78.94
2019-05-03T18:01:57.442Z,79.10
2019-05-03T18:04:40.050Z,79.79
2019-05-03T18:07:35.174Z,79.75
2019-05-03T18:10:15.214Z,79.76
2019-05-03T18:12:45.429Z,80.12
2019-05-03T18:15:15.847Z,80.10
2019-05-03T18:17:46.033Z,80.40
2019-05-03T18:20:16.051Z,80.92
2019-05-03T18:22:46.025Z,80.82
2019-05-03T18:25:15.955Z,80.77
2019-05-03T18:27:45.924Z,80.78
2019-05-03T18:30:15.988Z,80.34
2019-05-03T18:32:46.031Z,80.55
2019-05-03T18:35:16.006Z,80.28
2019-05-03T18:37:47.593Z,80.22
2019-05-03T18:40:17.588Z,79.54
2019-05-03T18:42:51.975Z,80.08
2019-05-03T18:45:29.441Z,80.27
2019-05-03T18:47:59.377Z,79.65
2019-05-03T18:50:29.396Z,80.18
2019-05-03T18:52:59.350Z,80.88
2019-05-03T18:55:30.279Z,80.19
2019-05-03T18:58:00.244Z,80.65
2019-05-03T19:00:31.359Z,80.85
2019-05-03T19:03:01.237Z,81.75
2019-05-03T19:05:34.925Z,81.62
2019-05-03T19:08:19.662Z,82.94
2019-05-03T19:10:56.003Z,83.92
2019-05-03T19:13:32.943Z,83.52
2019-05-03T19:16:09.860Z,82.34
2019-05-03T19:18:39.992Z,82.57
2019-05-03T19:21:09.907Z,82.07
2019-05-03T19:23:39.887Z,82.08
2019-05-03T19:26:10.892Z,81.04
2019-05-03T19:28:40.882Z,81.11
2019-05-03T19:31:12.641Z,80.94
2019-05-03T19:33:42.771Z,80.70
2019-05-03T19:36:17.502Z,79.92
2019-05-03T19:38:50.094Z,79.78
2019-05-03T19:41:20.068Z,79.74
2019-05-03T19:43:51.300Z,80.71
2019-05-03T19:46:21.407Z,80.08
2019-05-03T19:48:51.317Z,79.95
2019-05-03T19:51:21.289Z,80.60
2019-05-03T19:53:55.078Z,80.43
2019-05-03T19:56:25.830Z,80.30
2019-05-03T19:59:01.891Z,80.46
2019-05-03T20:01:59.802Z,80.83
2019-05-03T20:04:58.501Z,80.87
2019-05-03T20:07:51.737Z,80.48
2019-05-03T20:10:35.144Z,80.41
2019-05-03T20:13:05.179Z,80.61
2019-05-03T20:15:35.307Z,80.63
2019-05-03T20:18:05.487Z,80.79
2019-05-03T20:20:35.536Z,80.76
2019-05-03T20:23:05.531Z,80.48
2019-05-03T20:25:35.399Z,80.52
2019-05-03T20:28:05.623Z,81.20
2019-05-03T20:30:35.929Z,80.91
2019-05-03T20:33:09.334Z,80.78
2019-05-03T20:35:39.387Z,80.84
2019-05-03T20:38:09.303Z,80.96
2019-05-03T20:40:39.241Z,80.71
2019-05-03T20:43:27.196Z,80.71
2019-05-03T20:46:10.710Z,80.91
2019-05-03T20:48:42.359Z,81.00
2019-05-03T20:51:12.435Z,80.81
2019-05-03T20:53:42.400Z,80.89
2019-05-03T20:56:12.349Z,80.05
2019-05-03T20:58:44.513Z,79.97
2019-05-03T21:01:15.308Z,80.08
2019-05-03T21:03:45.543Z,79.77
2019-05-03T21:06:15.563Z,80.03
2019-05-03T21:08:52.929Z,79.69
2019-05-03T21:11:17.193Z,79.74
2019-05-03T21:13:47.190Z,79.44
2019-05-03T21:16:26.339Z,79.13
2019-05-03T21:19:04.981Z,79.51
2019-05-03T21:21:41.599Z,79.31
2019-05-03T21:24:16.748Z,78.78
2019-05-03T21:26:46.786Z,78.53
2019-05-03T21:29:16.777Z,79.08
2019-05-03T21:31:46.845Z,78.85
2019-05-03T21:34:16.867Z,79.55
2019-05-03T21:36:46.849Z,79.37
2019-05-03T21:39:16.768Z,79.82
2019-05-03T21:41:46.669Z,80.52
2019-05-03T21:44:32.841Z,79.74
2019-05-03T21:47:27.950Z,79.39
2019-05-03T21:49:58.878Z,79.62
2019-05-03T21:52:28.791Z,79.36
2019-05-03T21:55:00.859Z,79.46
2019-05-03T21:57:30.773Z,79.82
2019-05-03T22:00:00.780Z,80.09
2019-05-03T22:02:32.463Z,80.07
2019-05-03T22:05:02.409Z,80.28
2019-05-03T22:07:35.032Z,80.21
2019-05-03T22:10:05.757Z,81.71
2019-05-03T22:12:35.657Z,78.62
2019-05-03T22:15:22.293Z,76.26
2019-05-03T22:18:05.255Z,75.54
2019-05-03T22:20:51.997Z,74.42
2019-05-03T22:23:39.623Z,72.86
2019-05-03T22:26:09.548Z,72.30
2019-05-03T22:28:39.383Z,72.21
2019-05-03T22:31:09.309Z,72.13
2019-05-03T22:33:39.306Z,72.12
2019-05-03T22:36:10.316Z,72.70
2019-05-03T22:38:40.215Z,73.28
2019-05-03T22:41:10.040Z,73.25
2019-05-03T22:43:39.996Z,72.61
2019-05-03T22:46:09.900Z,71.94
2019-05-03T22:48:39.816Z,71.77
2019-05-03T22:51:09.656Z,71.47
2019-05-03T22:53:39.673Z,71.57
2019-05-03T22:56:09.492Z,71.34
2019-05-03T22:58:39.340Z,71.54
2019-05-03T23:01:10.294Z,71.64
2019-05-03T23:03:44.832Z,71.32
2019-05-03T23:06:22.426Z,71.93
2019-05-03T23:08:46.684Z,72.67
2019-05-03T23:11:16.601Z,72.77
2019-05-03T23:14:01.554Z,71.76
2019-05-03T23:16:35.652Z,71.66
2019-05-03T23:19:05.727Z,71.91
2019-05-03T23:21:41.399Z,71.76
2019-05-03T23:24:11.224Z,71.63
2019-05-03T23:26:41.131Z,71.76
2019-05-03T23:29:11.029Z,72.52
2019-05-03T23:31:41.015Z,72.88
2019-05-03T23:34:10.990Z,72.69
2019-05-03T23:36:40.836Z,72.59
2019-05-03T23:39:11.723Z,72.37
2019-05-03T23:41:41.627Z,73.36
2019-05-03T23:44:12.505Z,71.60
2019-05-03T23:46:49.275Z,72.58
2019-05-03T23:49:19.201Z,73.00
2019-05-03T23:51:51.016Z,71.52
2019-05-03T23:54:20.983Z,70.40
2019-05-03T23:56:50.967Z,70.55
2019-05-03T23:59:21.971Z,71.73
